Habib Express — 5IM379 — position and weather

sailwx.info

Track history (hours):
 
Tides and Currents Weather Stations Pressure Air Temp Water Temp Dewpoint Dewpoint Depression Visibility Wind Speed Wind Dir Waves Ship Positions

Habib Express

Last reported at 2017-Dec-17 20:40 UTC. Time now 2017-Dec-18 07:12 UTC.
Position N 25°23' W 079°53'.

Length 90 m; draft 4.5 m.

Type: Cargo ship. MMSI: 677027900.

Date/timePositionNaut miles runAvg speedWind from/ knotsBaromVisibWave heightAir tempDewpointWater temp
2017-Dec-17 20:40N 25°23' W 079°53'1 8.4
2017-Dec-17 20:30N 25°24' W 079°53'4 8.2
2017-Dec-17 20:00N 25°28' W 079°55'4 8.2
2017-Dec-17 19:30N 25°31' W 079°57'4 8.2
2017-Dec-17 19:00N 25°35' W 079°59'4 8.2
2017-Dec-17 18:30N 25°39' W 080°01'4 8.3
2017-Dec-17 18:00N 25°42' W 080°03'4 8.7
2017-Dec-17 17:31N 25°46' W 080°06'4 8.5
2017-Dec-17 17:01N 25°46' W 080°11'1 2.2
2017-Dec-17 16:31N 25°46' W 080°12'1 2.7
2017-Dec-17 16:01N 25°47' W 080°13'1 2.6
2017-Dec-17 15:31N 25°48' W 080°14'0 0.8
2017-Dec-17 15:01N 25°48' W 080°15'0 0.0
2017-Dec-17 14:31N 25°48' W 080°15'0 0.0
2017-Dec-17 14:01N 25°48' W 080°15'0 0.0
2017-Dec-17 13:31N 25°48' W 080°15'0 0.0
2017-Dec-17 13:00N 25°48' W 080°15'0 0.0
2017-Dec-17 12:30N 25°48' W 080°15'0 0.0
2017-Dec-17 12:01N 25°48' W 080°15'0 0.0
2017-Dec-17 11:31N 25°48' W 080°15'0 0.0
2017-Dec-17 11:00N 25°48' W 080°15'0 0.0
2017-Dec-17 10:30N 25°48' W 080°15'0 0.0
2017-Dec-17 10:01N 25°48' W 080°15'0 0.0
2017-Dec-17 09:30N 25°48' W 080°15'0 0.0
2017-Dec-17 09:00N 25°48' W 080°15'0 0.0
2017-Dec-17 08:30N 25°48' W 080°15'0 0.0
2017-Dec-17 08:01N 25°48' W 080°15'0 0.0
2017-Dec-17 07:31N 25°48' W 080°15'0 0.0
2017-Dec-17 07:00N 25°48' W 080°15'0 0.0
2017-Dec-17 06:30N 25°48' W 080°15'0 0.0
2017-Dec-17 06:00N 25°48' W 080°15'0 0.0
2017-Dec-17 05:30N 25°48' W 080°15'0 0.0
2017-Dec-17 05:00N 25°48' W 080°15'0 0.0
2017-Dec-17 04:30N 25°48' W 080°15'0 0.0
2017-Dec-17 04:01N 25°48' W 080°15'0 0.0
2017-Dec-17 03:31N 25°48' W 080°15'0 0.0
2017-Dec-17 03:00N 25°48' W 080°15'0 0.0
2017-Dec-17 02:31N 25°48' W 080°15'0 0.0
2017-Dec-17 02:01N 25°48' W 080°15'0 0.0
2017-Dec-17 01:31N 25°48' W 080°15'0 0.0
2017-Dec-17 01:01N 25°48' W 080°15'0 0.0
2017-Dec-17 00:30N 25°48' W 080°15'0 0.0
2017-Dec-17 00:01N 25°48' W 080°15'0 0.0
2017-Dec-16 23:31N 25°48' W 080°15'0 0.0
2017-Dec-16 23:01N 25°48' W 080°15'0 0.0
2017-Dec-16 22:31N 25°48' W 080°15'0 0.0
2017-Dec-16 22:01N 25°48' W 080°15'0 0.7
2017-Dec-16 21:31N 25°48' W 080°14'1 2.4
2017-Dec-16 21:01N 25°47' W 080°13'1 2.7
2017-Dec-16 20:30N 25°46' W 080°12'1 2.4
2017-Dec-16 20:01N 25°46' W 080°11'4 7.0
2017-Dec-16 19:30N 25°45' W 080°07'2 3.9
2017-Dec-16 19:01N 25°47' W 080°06'0 0.6
2017-Dec-16 18:28N 25°47' W 080°05'0 0.0
2017-Dec-16 17:55N 25°47' W 080°05'0 0.0
2017-Dec-16 17:28N 25°47' W 080°05'0 0.0
2017-Dec-16 16:58N 25°47' W 080°05'0 0.1
2017-Dec-16 16:30N 25°47' W 080°05'0 0.0
2017-Dec-16 16:00N 25°47' W 080°05'0 0.1
2017-Dec-16 15:30N 25°47' W 080°05'0 0.0
2017-Dec-16 15:00N 25°47' W 080°05'0 0.0
2017-Dec-16 14:30N 25°47' W 080°05'0 0.0
2017-Dec-16 14:00N 25°47' W 080°05'0 0.0
2017-Dec-16 13:30N 25°47' W 080°05'2 4.2
2017-Dec-16 13:00N 25°45' W 080°05'612.3
2017-Dec-16 12:30N 25°39' W 080°02'713.6
2017-Dec-16 12:00N 25°33' W 079°59'714.1
2017-Dec-16 11:30N 25°27' W 079°56'  
2017-Dec-11 02:53N 25°23' W 079°53'3 8.7
2017-Dec-11 02:30N 25°26' W 079°54'4 8.6
2017-Dec-11 02:00N 25°30' W 079°56'4 8.7
2017-Dec-11 01:30N 25°34' W 079°58'4 8.6
2017-Dec-11 01:01N 25°38' W 080°00'4 8.7
2017-Dec-11 00:30N 25°42' W 080°02'5 9.2
2017-Dec-11 00:00N 25°46' W 080°05'4 8.2
2017-Dec-10 23:30N 25°46' W 080°10'2 3.2
2017-Dec-10 23:01N 25°46' W 080°11'1 2.3
2017-Dec-10 22:31N 25°47' W 080°12'1 2.6
2017-Dec-10 22:01N 25°47' W 080°14'1 2.1
2017-Dec-10 21:31N 25°48' W 080°15'0 0.2
2017-Dec-10 21:01N 25°48' W 080°15'0 0.0
2017-Dec-10 20:30N 25°48' W 080°15'0 0.0
2017-Dec-10 20:00N 25°48' W 080°15'0 0.0
2017-Dec-10 19:30N 25°48' W 080°15'0 0.0
2017-Dec-10 19:01N 25°48' W 080°15'0 0.0
2017-Dec-10 18:30N 25°48' W 080°15'0 0.0
2017-Dec-10 18:01N 25°48' W 080°15'0 0.0
2017-Dec-10 17:31N 25°48' W 080°15'0 0.0
2017-Dec-10 17:01N 25°48' W 080°15'0 0.0
2017-Dec-10 16:31N 25°48' W 080°15'0 0.0
2017-Dec-10 16:01N 25°48' W 080°15'0 0.0
2017-Dec-10 15:31N 25°48' W 080°15'0 0.0
2017-Dec-10 15:01N 25°48' W 080°15'0 0.0
2017-Dec-10 14:31N 25°48' W 080°15'0 0.0
2017-Dec-10 14:00N 25°48' W 080°15'0 0.0
2017-Dec-10 13:31N 25°48' W 080°15'0 0.0
2017-Dec-10 13:00N 25°48' W 080°15'0 0.1
2017-Dec-10 12:31N 25°48' W 080°15'0 0.0
2017-Dec-10 12:01N 25°48' W 080°15'0 0.0
2017-Dec-10 11:31N 25°48' W 080°15'0 0.0
2017-Dec-10 11:01N 25°48' W 080°15'0 0.0
2017-Dec-10 10:30N 25°48' W 080°15'0 0.0
2017-Dec-10 10:01N 25°48' W 080°15'0 0.0
2017-Dec-10 09:30N 25°48' W 080°15'0 0.0
2017-Dec-10 09:01N 25°48' W 080°15'0 0.0
2017-Dec-10 08:31N 25°48' W 080°15'0 0.0
2017-Dec-10 08:00N 25°48' W 080°15'0 0.0
2017-Dec-10 07:30N 25°48' W 080°15'0 0.0
2017-Dec-10 07:00N 25°48' W 080°15'0 0.0
2017-Dec-10 06:30N 25°48' W 080°15'0 0.0
2017-Dec-10 06:00N 25°48' W 080°15'0 0.0
2017-Dec-10 05:30N 25°48' W 080°15'0 0.0
2017-Dec-10 05:01N 25°48' W 080°15'0 0.0
2017-Dec-10 04:31N 25°48' W 080°15'0 0.0
2017-Dec-10 04:01N 25°48' W 080°15'0 0.0
2017-Dec-10 03:31N 25°48' W 080°15'0 0.0
2017-Dec-10 03:01N 25°48' W 080°15'0 0.0
2017-Dec-10 02:31N 25°48' W 080°15'0 0.0
2017-Dec-10 02:01N 25°48' W 080°15'0 0.0
2017-Dec-10 01:30N 25°48' W 080°15'0 0.0
2017-Dec-10 01:01N 25°48' W 080°15'0 0.0
2017-Dec-10 00:31N 25°48' W 080°15'0 0.0
2017-Dec-10 00:01N 25°48' W 080°15'0 0.0
2017-Dec-09 23:30N 25°48' W 080°15'0 0.0
2017-Dec-09 23:01N 25°48' W 080°15'0 0.0
2017-Dec-09 22:31N 25°48' W 080°15'0 0.0
2017-Dec-09 22:00N 25°48' W 080°15'0 0.0
2017-Dec-09 21:31N 25°48' W 080°15'0 0.0
2017-Dec-09 21:01N 25°48' W 080°15'0 0.0
2017-Dec-09 20:30N 25°48' W 080°15'0 0.0
2017-Dec-09 20:00N 25°48' W 080°15'0 0.8
2017-Dec-09 19:30N 25°48' W 080°14'1 2.6
2017-Dec-09 19:00N 25°47' W 080°13'1 2.7
2017-Dec-09 18:31N 25°46' W 080°12'1 2.8
2017-Dec-09 18:00N 25°46' W 080°10'4 7.1
2017-Dec-09 17:30N 25°45' W 080°07'2 4.7
2017-Dec-09 17:00N 25°46' W 080°04'2 4.5
2017-Dec-09 16:30N 25°44' W 080°03'5 9.6
2017-Dec-09 16:00N 25°40' W 080°01'611.6
2017-Dec-09 15:30N 25°35' W 079°58'714.1
2017-Dec-09 15:00N 25°28' W 079°55'714.0
2017-Dec-09 14:30N 25°22' W 079°52'  
Track history (hours):
 
Tides and Currents Weather Stations Pressure Air Temp Water Temp Dewpoint Dewpoint Depression Visibility Wind Speed Wind Dir Waves Ship Positions

Habib Express

Last reported at 2017-Dec-17 20:40 UTC. Time now 2017-Dec-18 07:12 UTC.
Position N 25°23' W 079°53'.

Length 90 m; draft 4.5 m.

Type: Cargo ship. MMSI: 677027900.

Date/timePositionNaut miles runAvg speedWind from/ knotsBaromVisibWave heightAir tempDewpointWater temp
2017-Dec-17 20:40N 25°23' W 079°53'1 8.4
2017-Dec-17 20:30N 25°24' W 079°53'4 8.2
2017-Dec-17 20:00N 25°28' W 079°55'4 8.2
2017-Dec-17 19:30N 25°31' W 079°57'4 8.2
2017-Dec-17 19:00N 25°35' W 079°59'4 8.2
2017-Dec-17 18:30N 25°39' W 080°01'4 8.3
2017-Dec-17 18:00N 25°42' W 080°03'4 8.7
2017-Dec-17 17:31N 25°46' W 080°06'4 8.5
2017-Dec-17 17:01N 25°46' W 080°11'1 2.2
2017-Dec-17 16:31N 25°46' W 080°12'1 2.7
2017-Dec-17 16:01N 25°47' W 080°13'1 2.6
2017-Dec-17 15:31N 25°48' W 080°14'0 0.8
2017-Dec-17 15:01N 25°48' W 080°15'0 0.0
2017-Dec-17 14:31N 25°48' W 080°15'0 0.0
2017-Dec-17 14:01N 25°48' W 080°15'0 0.0
2017-Dec-17 13:31N 25°48' W 080°15'0 0.0
2017-Dec-17 13:00N 25°48' W 080°15'0 0.0
2017-Dec-17 12:30N 25°48' W 080°15'0 0.0
2017-Dec-17 12:01N 25°48' W 080°15'0 0.0
2017-Dec-17 11:31N 25°48' W 080°15'0 0.0
2017-Dec-17 11:00N 25°48' W 080°15'0 0.0
2017-Dec-17 10:30N 25°48' W 080°15'0 0.0
2017-Dec-17 10:01N 25°48' W 080°15'0 0.0
2017-Dec-17 09:30N 25°48' W 080°15'0 0.0
2017-Dec-17 09:00N 25°48' W 080°15'0 0.0
2017-Dec-17 08:30N 25°48' W 080°15'0 0.0
2017-Dec-17 08:01N 25°48' W 080°15'0 0.0
2017-Dec-17 07:31N 25°48' W 080°15'0 0.0
2017-Dec-17 07:00N 25°48' W 080°15'0 0.0
2017-Dec-17 06:30N 25°48' W 080°15'0 0.0
2017-Dec-17 06:00N 25°48' W 080°15'0 0.0
2017-Dec-17 05:30N 25°48' W 080°15'0 0.0
2017-Dec-17 05:00N 25°48' W 080°15'0 0.0
2017-Dec-17 04:30N 25°48' W 080°15'0 0.0
2017-Dec-17 04:01N 25°48' W 080°15'0 0.0
2017-Dec-17 03:31N 25°48' W 080°15'0 0.0
2017-Dec-17 03:00N 25°48' W 080°15'0 0.0
2017-Dec-17 02:31N 25°48' W 080°15'0 0.0
2017-Dec-17 02:01N 25°48' W 080°15'0 0.0
2017-Dec-17 01:31N 25°48' W 080°15'0 0.0
2017-Dec-17 01:01N 25°48' W 080°15'0 0.0
2017-Dec-17 00:30N 25°48' W 080°15'0 0.0
2017-Dec-17 00:01N 25°48' W 080°15'0 0.0
2017-Dec-16 23:31N 25°48' W 080°15'0 0.0
2017-Dec-16 23:01N 25°48' W 080°15'0 0.0
2017-Dec-16 22:31N 25°48' W 080°15'0 0.0
2017-Dec-16 22:01N 25°48' W 080°15'0 0.7
2017-Dec-16 21:31N 25°48' W 080°14'1 2.4
2017-Dec-16 21:01N 25°47' W 080°13'1 2.7
2017-Dec-16 20:30N 25°46' W 080°12'1 2.4
2017-Dec-16 20:01N 25°46' W 080°11'4 7.0
2017-Dec-16 19:30N 25°45' W 080°07'2 3.9
2017-Dec-16 19:01N 25°47' W 080°06'0 0.6
2017-Dec-16 18:28N 25°47' W 080°05'0 0.0
2017-Dec-16 17:55N 25°47' W 080°05'0 0.0
2017-Dec-16 17:28N 25°47' W 080°05'0 0.0
2017-Dec-16 16:58N 25°47' W 080°05'0 0.1
2017-Dec-16 16:30N 25°47' W 080°05'0 0.0
2017-Dec-16 16:00N 25°47' W 080°05'0 0.1
2017-Dec-16 15:30N 25°47' W 080°05'0 0.0
2017-Dec-16 15:00N 25°47' W 080°05'0 0.0
2017-Dec-16 14:30N 25°47' W 080°05'0 0.0
2017-Dec-16 14:00N 25°47' W 080°05'0 0.0
2017-Dec-16 13:30N 25°47' W 080°05'2 4.2
2017-Dec-16 13:00N 25°45' W 080°05'612.3
2017-Dec-16 12:30N 25°39' W 080°02'713.6
2017-Dec-16 12:00N 25°33' W 079°59'714.1
2017-Dec-16 11:30N 25°27' W 079°56'  
2017-Dec-11 02:53N 25°23' W 079°53'3 8.7
2017-Dec-11 02:30N 25°26' W 079°54'4 8.6
2017-Dec-11 02:00N 25°30' W 079°56'4 8.7
2017-Dec-11 01:30N 25°34' W 079°58'4 8.6
2017-Dec-11 01:01N 25°38' W 080°00'4 8.7
2017-Dec-11 00:30N 25°42' W 080°02'5 9.2
2017-Dec-11 00:00N 25°46' W 080°05'4 8.2
2017-Dec-10 23:30N 25°46' W 080°10'2 3.2
2017-Dec-10 23:01N 25°46' W 080°11'1 2.3
2017-Dec-10 22:31N 25°47' W 080°12'1 2.6
2017-Dec-10 22:01N 25°47' W 080°14'1 2.1
2017-Dec-10 21:31N 25°48' W 080°15'0 0.2
2017-Dec-10 21:01N 25°48' W 080°15'0 0.0
2017-Dec-10 20:30N 25°48' W 080°15'0 0.0
2017-Dec-10 20:00N 25°48' W 080°15'0 0.0
2017-Dec-10 19:30N 25°48' W 080°15'0 0.0
2017-Dec-10 19:01N 25°48' W 080°15'0 0.0
2017-Dec-10 18:30N 25°48' W 080°15'0 0.0
2017-Dec-10 18:01N 25°48' W 080°15'0 0.0
2017-Dec-10 17:31N 25°48' W 080°15'0 0.0
2017-Dec-10 17:01N 25°48' W 080°15'0 0.0
2017-Dec-10 16:31N 25°48' W 080°15'0 0.0
2017-Dec-10 16:01N 25°48' W 080°15'0 0.0
2017-Dec-10 15:31N 25°48' W 080°15'0 0.0
2017-Dec-10 15:01N 25°48' W 080°15'0 0.0
2017-Dec-10 14:31N 25°48' W 080°15'0 0.0
2017-Dec-10 14:00N 25°48' W 080°15'0 0.0
2017-Dec-10 13:31N 25°48' W 080°15'0 0.0
2017-Dec-10 13:00N 25°48' W 080°15'0 0.1
2017-Dec-10 12:31N 25°48' W 080°15'0 0.0
2017-Dec-10 12:01N 25°48' W 080°15'0 0.0
2017-Dec-10 11:31N 25°48' W 080°15'0 0.0
2017-Dec-10 11:01N 25°48' W 080°15'0 0.0
2017-Dec-10 10:30N 25°48' W 080°15'0 0.0
2017-Dec-10 10:01N 25°48' W 080°15'0 0.0
2017-Dec-10 09:30N 25°48' W 080°15'0 0.0
2017-Dec-10 09:01N 25°48' W 080°15'0 0.0
2017-Dec-10 08:31N 25°48' W 080°15'0 0.0
2017-Dec-10 08:00N 25°48' W 080°15'0 0.0
2017-Dec-10 07:30N 25°48' W 080°15'0 0.0
2017-Dec-10 07:00N 25°48' W 080°15'0 0.0
2017-Dec-10 06:30N 25°48' W 080°15'0 0.0
2017-Dec-10 06:00N 25°48' W 080°15'0 0.0
2017-Dec-10 05:30N 25°48' W 080°15'0 0.0
2017-Dec-10 05:01N 25°48' W 080°15'0 0.0
2017-Dec-10 04:31N 25°48' W 080°15'0 0.0
2017-Dec-10 04:01N 25°48' W 080°15'0 0.0
2017-Dec-10 03:31N 25°48' W 080°15'0 0.0
2017-Dec-10 03:01N 25°48' W 080°15'0 0.0
2017-Dec-10 02:31N 25°48' W 080°15'0 0.0
2017-Dec-10 02:01N 25°48' W 080°15'0 0.0
2017-Dec-10 01:30N 25°48' W 080°15'0 0.0
2017-Dec-10 01:01N 25°48' W 080°15'0 0.0
2017-Dec-10 00:31N 25°48' W 080°15'0 0.0
2017-Dec-10 00:01N 25°48' W 080°15'0 0.0
2017-Dec-09 23:30N 25°48' W 080°15'0 0.0
2017-Dec-09 23:01N 25°48' W 080°15'0 0.0
2017-Dec-09 22:31N 25°48' W 080°15'0 0.0
2017-Dec-09 22:00N 25°48' W 080°15'0 0.0
2017-Dec-09 21:31N 25°48' W 080°15'0 0.0
2017-Dec-09 21:01N 25°48' W 080°15'0 0.0
2017-Dec-09 20:30N 25°48' W 080°15'0 0.0
2017-Dec-09 20:00N 25°48' W 080°15'0 0.8
2017-Dec-09 19:30N 25°48' W 080°14'1 2.6
2017-Dec-09 19:00N 25°47' W 080°13'1 2.7
2017-Dec-09 18:31N 25°46' W 080°12'1 2.8
2017-Dec-09 18:00N 25°46' W 080°10'4 7.1
2017-Dec-09 17:30N 25°45' W 080°07'2 4.7
2017-Dec-09 17:00N 25°46' W 080°04'2 4.5
2017-Dec-09 16:30N 25°44' W 080°03'5 9.6
2017-Dec-09 16:00N 25°40' W 080°01'611.6
2017-Dec-09 15:30N 25°35' W 079°58'714.1
2017-Dec-09 15:00N 25°28' W 079°55'714.0
2017-Dec-09 14:30N 25°22' W 079°52'  

Dump ship's entire track history